Time;durP1;ratioP1;P1;durP2;ratioP2;P2;SDS_P1;SDS_P2;PMS_P1;PMS_P2;Temp;Humidity;BMP_temperature;BMP_pressure;BME280_temperature;BME280_humidity;BME280_pressure;Samples;Min_cycle;Max_cycle;Signal;HPM_P1;HPM_P2
2021/09/25 00:00:37;;;;;;;4.32;4.03;;;;;;;17.35;72.57;99989.69;10405674;28;20436;-73
2021/09/25 00:05:39;;;;;;;4.85;3.90;;;;;;;17.36;72.00;99984.31;10405162;28;20038;-74
2021/09/25 00:10:41;;;;;;;4.13;3.80;;;;;;;17.36;71.89;99983.44;10423120;28;20060;-74
2021/09/25 00:15:43;;;;;;;4.40;3.55;;;;;;;17.54;70.54;99987.66;10422017;28;20037;-74
2021/09/25 00:20:45;;;;;;;3.63;3.10;;;;;;;17.44;70.76;99983.81;10421309;28;20049;-74
2021/09/25 00:25:47;;;;;;;6.68;2.88;;;;;;;17.43;70.54;99983.91;10421857;28;20045;-72
2021/09/25 00:30:49;;;;;;;3.33;3.10;;;;;;;17.43;70.20;99981.25;10420885;28;20064;-73
2021/09/25 00:35:51;;;;;;;3.28;2.85;;;;;;;17.43;70.12;99982.13;10420820;28;20044;-73
2021/09/25 00:40:53;;;;;;;2.85;2.65;;;;;;;17.60;68.91;99979.28;10420247;28;20107;-72
2021/09/25 00:45:54;;;;;;;3.53;2.45;;;;;;;17.48;68.97;99979.19;10402844;28;20115;-74
2021/09/25 00:50:56;;;;;;;2.60;2.40;;;;;;;17.48;69.08;99979.19;10403351;28;20092;-73
2021/09/25 00:55:59;;;;;;;2.78;2.58;;;;;;;17.54;68.43;99976.16;10419911;28;20072;-74
2021/09/25 01:01:01;;;;;;;2.80;2.60;;;;;;;17.55;68.46;99980.53;10419600;28;20049;-74
2021/09/25 01:06:03;;;;;;;4.22;2.42;;;;;;;17.57;68.45;99986.59;10404101;28;20386;-73
2021/09/25 01:11:05;;;;;;;4.05;2.42;;;;;;;17.39;68.99;99988.56;10419400;28;20487;-72
2021/09/25 01:16:07;;;;;;;3.00;2.45;;;;;;;17.37;69.26;99987.81;10419383;28;20044;-72
2021/09/25 01:21:09;;;;;;;3.60;2.42;;;;;;;17.44;68.88;99994.44;10433342;22;20045;-68
2021/09/25 01:26:12;;;;;;;3.95;2.70;;;;;;;17.46;68.47;99995.22;10417197;28;20064;-68
2021/09/25 01:31:15;;;;;;;2.58;2.30;;;;;;;17.50;68.15;99995.91;10399171;28;20053;-67
2021/09/25 01:36:18;;;;;;;2.70;2.33;;;;;;;17.46;68.35;100000.53;10416536;28;20045;-69
2021/09/25 01:41:19;;;;;;;3.38;2.22;;;;;;;17.35;68.97;99993.22;10398039;28;20119;-68
2021/09/25 01:46:21;;;;;;;3.45;1.83;;;;;;;17.29;69.11;100001.56;10416918;28;20483;-68
2021/09/25 01:51:23;;;;;;;2.38;2.15;;;;;;;17.44;68.37;99999.75;10416131;28;20116;-68
2021/09/25 01:56:24;;;;;;;3.20;2.13;;;;;;;17.42;68.70;99995.50;10415770;28;20111;-68
2021/09/25 02:01:26;;;;;;;3.03;2.05;;;;;;;17.31;69.08;99990.81;10415973;28;20083;-68
2021/09/25 02:06:28;;;;;;;3.45;2.00;;;;;;;17.30;69.29;99997.09;10415702;28;20056;-68
2021/09/25 02:11:30;;;;;;;2.88;2.10;;;;;;;17.24;69.79;99998.31;10397754;28;20052;-69
2021/09/25 02:16:32;;;;;;;3.33;2.33;;;;;;;17.33;69.01;100002.22;10415921;28;20046;-69
2021/09/25 02:21:33;;;;;;;2.10;1.90;;;;;;;17.31;68.86;100004.09;10397065;28;20496;-68
2021/09/25 02:26:35;;;;;;;3.03;2.38;;;;;;;17.30;68.75;100000.59;10414869;28;20049;-69
2021/09/25 02:31:36;;;;;;;2.55;2.05;;;;;;;17.39;68.44;100007.16;10397196;28;20049;-69
2021/09/25 02:36:38;;;;;;;7.78;2.30;;;;;;;17.28;68.72;100005.16;10414329;28;20052;-69
2021/09/25 02:41:40;;;;;;;2.55;2.08;;;;;;;17.23;69.08;100017.03;10414580;28;20049;-68
2021/09/25 02:46:42;;;;;;;2.30;2.10;;;;;;;17.21;69.25;100018.91;10414277;28;20037;-68
2021/09/25 02:51:44;;;;;;;2.78;2.00;;;;;;;17.22;69.11;100020.59;10414086;28;20038;-69
2021/09/25 02:56:45;;;;;;;3.15;2.25;;;;;;;17.24;69.40;100014.25;10413912;28;20046;-69
2021/09/25 03:01:47;;;;;;;2.15;1.95;;;;;;;17.17;69.91;100015.56;10414506;28;20041;-68
2021/09/25 03:06:49;;;;;;;2.38;2.00;;;;;;;17.07;70.19;100023.22;10414413;28;20053;-69
2021/09/25 03:11:50;;;;;;;2.22;2.03;;;;;;;17.16;69.83;100019.16;10413487;28;20049;-68
2021/09/25 03:16:53;;;;;;;2.20;2.00;;;;;;;17.22;69.19;100017.94;10413255;28;20091;-69
2021/09/25 03:21:54;;;;;;;3.17;2.20;;;;;;;17.09;69.85;100021.34;10413227;28;20081;-69
2021/09/25 03:26:56;;;;;;;2.67;2.08;;;;;;;17.00;70.06;100013.03;10413559;28;20469;-69
2021/09/25 03:31:57;;;;;;;2.25;1.85;;;;;;;17.07;69.92;100007.28;10414280;28;20103;-69
2021/09/25 03:36:59;;;;;;;2.65;2.30;;;;;;;17.01;69.93;100014.78;10413619;28;20037;-69
2021/09/25 03:42:00;;;;;;;3.35;2.17;;;;;;;17.02;69.72;100019.97;10413216;28;20038;-69
2021/09/25 03:47:02;;;;;;;2.22;2.03;;;;;;;17.07;69.52;100017.06;10413046;28;20050;-69
2021/09/25 03:52:04;;;;;;;2.20;2.00;;;;;;;16.94;70.16;100013.41;10412780;28;20510;-69
2021/09/25 03:57:06;;;;;;;2.13;1.90;;;;;;;17.01;69.66;100017.44;10413695;28;20053;-69
2021/09/25 04:02:08;;;;;;;3.47;2.13;;;;;;;16.83;70.45;100022.88;10413640;28;20107;-69
2021/09/25 04:07:10;;;;;;;3.60;2.20;;;;;;;16.73;71.14;100013.69;10417747;28;20048;-68
2021/09/25 04:12:11;;;;;;;3.83;2.30;;;;;;;16.59;71.72;100018.91;10420295;28;20049;-68
2021/09/25 04:17:13;;;;;;;2.08;1.90;;;;;;;16.79;70.52;100017.81;10419626;28;20095;-68
2021/09/25 04:22:15;;;;;;;2.65;2.05;;;;;;;16.83;69.99;100022.00;10420296;28;20045;-69
2021/09/25 04:27:16;;;;;;;3.80;2.15;;;;;;;16.67;70.94;100022.00;10419269;28;20103;-69
2021/09/25 04:32:18;;;;;;;2.22;2.03;;;;;;;16.72;70.63;100025.25;10418953;28;20045;-69
2021/09/25 04:37:20;;;;;;;2.20;2.00;;;;;;;16.81;70.28;100031.84;10385036;28;20396;-69
2021/09/25 04:42:21;;;;;;;4.63;1.95;;;;;;;16.72;70.45;100033.22;10419250;28;20049;-69
2021/09/25 04:47:23;;;;;;;2.13;1.92;;;;;;;16.72;70.44;100029.69;10418842;28;20134;-69
2021/09/25 04:52:24;;;;;;;2.78;2.28;;;;;;;16.80;69.99;100032.78;10400915;28;20111;-69
2021/09/25 04:57:26;;;;;;;2.78;2.17;;;;;;;16.82;69.96;100029.13;10419377;28;20045;-69
2021/09/25 05:02:27;;;;;;;2.58;2.38;;;;;;;16.84;69.54;100029.88;10417838;28;20045;-70
2021/09/25 05:07:29;;;;;;;3.50;2.80;;;;;;;16.82;69.74;100033.53;10418629;28;20044;-69
2021/09/25 05:12:30;;;;;;;2.95;1.80;;;;;;;16.80;69.71;100044.25;10418072;28;20137;-70
2021/09/25 05:17:32;;;;;;;2.75;2.38;;;;;;;16.90;68.64;100044.59;10417833;28;20107;-69
2021/09/25 05:22:34;;;;;;;2.08;1.80;;;;;;;16.79;69.23;100053.19;10418228;28;20042;-69
2021/09/25 05:27:36;;;;;;;2.33;2.10;;;;;;;16.79;69.38;100054.97;10400826;28;20054;-69
2021/09/25 05:32:38;;;;;;;4.25;2.20;;;;;;;16.94;68.34;100055.91;10418467;28;20057;-69
2021/09/25 05:37:40;;;;;;;2.63;2.13;;;;;;;16.92;68.81;100071.06;10401110;28;20037;-69
2021/09/25 05:42:41;;;;;;;4.07;2.25;;;;;;;16.85;69.01;100067.91;10417721;28;20395;-69
2021/09/25 05:47:44;;;;;;;4.30;2.70;;;;;;;16.95;68.00;100060.25;10417670;28;20495;-69
2021/09/25 05:52:46;;;;;;;4.20;2.40;;;;;;;16.73;69.33;100074.75;10399409;28;20082;-69
2021/09/25 05:57:48;;;;;;;3.22;2.10;;;;;;;16.85;68.84;100065.25;10417086;28;20124;-71
2021/09/25 06:02:49;;;;;;;2.45;2.00;;;;;;;16.90;68.24;100069.34;10399753;28;20051;-70
2021/09/25 06:07:51;;;;;;;2.40;2.20;;;;;;;16.86;68.12;100078.41;10416265;28;20538;-70
2021/09/25 06:12:53;;;;;;;4.07;1.85;;;;;;;17.02;67.64;100073.09;10398702;28;20053;-69
2021/09/25 06:17:55;;;;;;;2.78;2.08;;;;;;;16.94;67.75;100070.03;10415880;28;20049;-70
2021/09/25 06:22:57;;;;;;;2.78;2.20;;;;;;;17.01;67.83;100081.16;10415672;28;20049;-70
2021/09/25 06:27:59;;;;;;;2.97;2.13;;;;;;;16.99;68.20;100078.56;10415524;28;20398;-70
2021/09/25 06:33:00;;;;;;;4.80;1.92;;;;;;;17.02;67.67;100077.56;10399004;28;20054;-68
2021/09/25 06:38:03;;;;;;;1.70;1.60;;;;;;;17.03;67.98;100081.91;10416208;28;20545;-69
2021/09/25 06:43:05;;;;;;;3.33;2.08;;;;;;;17.26;66.87;100085.88;10415470;28;20053;-69
2021/09/25 06:48:07;;;;;;;3.13;1.88;;;;;;;17.32;67.27;100097.03;10414978;28;20060;-69
2021/09/25 06:53:09;;;;;;;3.25;1.95;;;;;;;17.59;65.96;100089.22;10396923;28;20049;-70
2021/09/25 06:58:10;;;;;;;2.72;2.10;;;;;;;17.46;67.02;100098.88;10414722;28;20052;-68
2021/09/25 07:03:12;;;;;;;2.17;1.83;;;;;;;17.56;66.76;100092.03;10415197;28;20451;-69
2021/09/25 07:08:14;;;;;;;3.78;1.98;;;;;;;17.74;65.39;100098.09;10397607;28;20072;-70
2021/09/25 07:13:16;;;;;;;2.42;2.20;;;;;;;17.71;66.52;100095.59;10414897;28;20052;-69
2021/09/25 07:18:18;;;;;;;2.90;2.25;;;;;;;17.81;66.38;100103.91;10414907;28;20124;-70
2021/09/25 07:23:19;;;;;;;3.65;2.17;;;;;;;18.11;64.24;100117.16;10429095;22;20057;-72
2021/09/25 07:28:21;;;;;;;2.53;1.70;;;;;;;17.98;65.71;100119.69;10413744;28;20050;-72
2021/09/25 07:33:22;;;;;;;2.17;1.70;;;;;;;18.20;63.80;100129.03;10414678;28;20056;-71
2021/09/25 07:38:24;;;;;;;2.03;1.73;;;;;;;18.24;63.30;100131.41;10414664;28;20228;-73
2021/09/25 07:43:25;;;;;;;2.20;2.00;;;;;;;18.32;62.93;100131.75;10403474;28;20063;-72
2021/09/25 07:48:27;;;;;;;2.95;1.80;;;;;;;18.26;63.48;100131.28;10422510;28;20045;-72
2021/09/25 07:53:29;;;;;;;2.13;1.92;;;;;;;18.47;62.58;100129.97;10404217;28;20053;-72
2021/09/25 07:58:30;;;;;;;2.80;1.92;;;;;;;18.44;62.53;100138.13;10421708;28;20045;-73
2021/09/25 08:03:32;;;;;;;2.25;2.00;;;;;;;18.46;63.58;100136.25;10421522;28;20045;-73
2021/09/25 08:08:34;;;;;;;3.00;2.13;;;;;;;18.58;62.84;100145.25;10421504;28;20038;-72
2021/09/25 08:13:36;;;;;;;2.10;1.90;;;;;;;18.77;62.38;100148.50;10421537;28;20049;-72
2021/09/25 08:18:37;;;;;;;3.08;2.13;;;;;;;18.67;62.82;100142.00;10421046;28;20488;-72
2021/09/25 08:23:39;;;;;;;2.75;2.55;;;;;;;18.93;62.08;100151.00;10403239;28;20138;-73
2021/09/25 08:28:40;;;;;;;6.10;2.53;;;;;;;18.97;62.05;100146.34;10420931;28;20041;-72
2021/09/25 08:33:43;;;;;;;4.03;2.70;;;;;;;19.11;60.84;100155.13;10420409;28;20045;-72
2021/09/25 08:38:45;;;;;;;3.25;2.60;;;;;;;19.26;61.06;100165.78;10420239;28;20442;-73
2021/09/25 08:43:47;;;;;;;6.10;2.67;;;;;;;19.28;60.57;100163.84;10408045;28;20100;-71
2021/09/25 08:48:49;;;;;;;3.80;2.20;;;;;;;19.42;61.35;100166.44;10378929;28;20100;-72
2021/09/25 08:53:50;;;;;;;3.92;2.30;;;;;;;19.51;61.46;100162.31;10395705;28;20099;-72
2021/09/25 08:58:52;;;;;;;2.20;2.00;;;;;;;19.65;59.43;100165.78;10387613;28;20511;-73
2021/09/25 09:03:54;;;;;;;3.25;2.00;;;;;;;19.97;59.07;100157.44;10379704;28;20108;-72
2021/09/25 09:08:59;;;;;;;3.20;2.30;;;;;;;19.90;58.42;100169.47;10390678;28;20052;-73
2021/09/25 09:14:02;;;;;;;3.50;2.30;;;;;;;19.99;58.96;100160.84;10390945;28;20041;-73
2021/09/25 09:19:03;;;;;;;2.50;2.30;;;;;;;20.40;57.20;100160.63;10378700;28;20038;-73
2021/09/25 09:24:08;;;;;;;4.68;3.15;;;;;;;20.35;57.07;100162.75;10360149;28;20176;-73
2021/09/25 09:29:10;;;;;;;3.95;2.63;;;;;;;20.36;57.58;100159.16;10390471;28;20050;-75
2021/09/25 09:34:11;;;;;;;4.05;2.05;;;;;;;20.65;57.33;100153.56;10392383;28;20100;-73
2021/09/25 09:39:21;;;;;;;2.70;2.42;;;;;;;20.59;56.51;100154.03;10397683;28;20100;-72
2021/09/25 09:44:24;;;;;;;3.03;2.35;;;;;;;20.90;55.76;100150.84;10359763;28;20054;-73
2021/09/25 09:49:27;;;;;;;3.65;3.35;;;;;;;20.89;55.33;100151.81;10412465;28;20144;-71
2021/09/25 09:54:35;;;;;;;3.20;2.50;;;;;;;21.04;56.31;100152.50;10418396;28;20049;-72
2021/09/25 09:59:38;;;;;;;3.58;2.33;;;;;;;21.33;53.74;100141.50;10385547;28;20454;-73
2021/09/25 10:04:40;;;;;;;3.13;2.47;;;;;;;21.69;53.23;100145.88;10397277;28;20058;-73
2021/09/25 10:09:42;;;;;;;2.55;2.13;;;;;;;21.94;52.23;100154.72;10377292;28;20068;-71
2021/09/25 10:14:46;;;;;;;2.95;2.40;;;;;;;22.08;50.75;100151.81;10376489;28;20050;-72
2021/09/25 10:19:48;;;;;;;2.92;2.17;;;;;;;22.74;49.25;100155.53;10359881;28;20042;-72
2021/09/25 10:24:54;;;;;;;3.13;1.85;;;;;;;22.80;51.21;100152.38;10377342;28;20065;-73
2021/09/25 10:29:55;;;;;;;3.10;2.00;;;;;;;22.68;49.98;100147.97;10389343;28;20057;-71
2021/09/25 10:35:33;;;;;;;2.65;1.63;;;;;;;23.05;50.33;100150.38;10392052;28;20562;-72
2021/09/25 10:40:40;;;;;;;2.92;2.38;;;;;;;22.86;51.31;100148.31;10246505;29;20441;-73
2021/09/25 10:45:42;;;;;;;2.70;1.85;;;;;;;23.05;50.70;100153.06;10237077;29;20047;-74
2021/09/25 10:50:58;;;;;;;2.65;2.28;;;;;;;23.01;50.64;100154.28;10267673;28;20107;-72
2021/09/25 10:56:03;;;;;;;2.40;2.10;;;;;;;23.50;51.34;100151.06;10266845;28;20057;-73
2021/09/25 11:01:11;;;;;;;2.13;1.77;;;;;;;23.75;48.62;100154.41;10236318;29;20055;-73
2021/09/25 11:06:23;;;;;;;3.33;1.80;;;;;;;23.70;48.38;100154.81;10251958;29;20059;-73
2021/09/25 11:11:40;;;;;;;4.10;1.45;;;;;;;24.06;49.20;100150.81;10252404;28;20085;-72
2021/09/25 11:16:56;;;;;;;1.50;1.40;;;;;;;24.33;47.41;100147.56;10397363;28;20042;-72
2021/09/25 11:21:59;;;;;;;1.60;1.30;;;;;;;24.35;47.35;100147.44;10350507;28;20050;-73
2021/09/25 11:27:10;;;;;;;2.00;1.40;;;;;;;24.77;44.55;100142.81;10383980;28;20106;-72
2021/09/25 11:32:14;;;;;;;2.05;1.30;;;;;;;24.87;46.37;100142.81;10365608;28;20053;-72
2021/09/25 11:37:16;;;;;;;2.45;1.60;;;;;;;24.92;44.85;100136.06;10391030;28;20445;-71
2021/09/25 11:42:19;;;;;;;2.20;1.33;;;;;;;24.81;46.08;100129.94;10390484;28;20156;-72
2021/09/25 11:47:25;;;;;;;2.35;1.52;;;;;;;25.08;43.91;100140.09;10423800;28;20076;-73
2021/09/25 11:52:26;;;;;;;1.60;1.30;;;;;;;24.55;46.27;100151.09;10423307;28;20049;-72
2021/09/25 11:57:28;;;;;;;1.80;1.20;;;;;;;24.30;47.72;100145.13;10423155;28;20044;-71
2021/09/25 12:02:47;;;;;;;1.52;1.30;;;;;;;23.89;47.42;100144.19;10423043;28;20414;-73
2021/09/25 12:07:49;;;;;;;1.38;1.10;;;;;;;24.22;46.33;100134.22;10405521;28;20148;-72
2021/09/25 12:13:04;;;;;;;1.00;1.00;;;;;;;24.01;47.51;100136.94;10405088;28;20111;-73
2021/09/25 12:18:08;;;;;;;1.40;1.10;;;;;;;23.41;47.42;100139.28;10405103;28;20117;-72
2021/09/25 12:23:11;;;;;;;0.93;0.80;;;;;;;23.64;48.42;100145.44;10422062;28;20499;-71
2021/09/25 12:28:24;;;;;;;0.93;0.80;;;;;;;23.29;47.33;100144.84;10422069;28;20049;-71
2021/09/25 12:33:26;;;;;;;2.58;1.10;;;;;;;23.19;48.03;100135.84;10421521;28;20053;-71
2021/09/25 12:38:31;;;;;;;1.08;0.98;;;;;;;23.49;48.29;100138.66;10404392;28;20496;-72
2021/09/25 12:43:35;;;;;;;0.98;0.80;;;;;;;23.56;46.75;100128.25;10381035;28;20450;-72
2021/09/25 12:49:10;;;;;;;1.10;1.00;;;;;;;23.40;47.62;100128.69;10380715;28;20480;-72
2021/09/25 12:54:19;;;;;;;;;;;;;;;23.32;48.83;100134.69;10364198;28;20045;-72
2021/09/25 12:59:32;;;;;;;0.90;0.90;;;;;;;23.18;48.50;100126.94;10380106;28;19929;-72
2021/09/25 13:04:40;;;;;;;0.75;0.73;;;;;;;23.23;47.76;100130.09;10386121;28;20132;-72
2021/09/25 13:09:48;;;;;;;1.05;0.95;;;;;;;23.09;49.38;100130.38;10398710;28;20038;-72
2021/09/25 13:15:04;;;;;;;1.17;0.90;;;;;;;22.98;50.48;100125.91;10410837;28;20076;-72
2021/09/25 13:20:15;;;;;;;1.00;0.90;;;;;;;22.86;50.42;100126.88;10404418;28;20091;-72
2021/09/25 13:25:18;;;;;;;2.10;1.20;;;;;;;23.30;48.53;100125.09;10418480;22;20045;-70
2021/09/25 13:30:20;;;;;;;1.50;1.40;;;;;;;23.23;49.86;100121.19;10400733;28;20040;-70
2021/09/25 13:35:23;;;;;;;1.60;0.80;;;;;;;23.20;48.13;100118.75;10418170;28;20049;-70
2021/09/25 13:40:24;;;;;;;1.88;1.15;;;;;;;23.03;49.29;100117.50;10383023;28;20038;-70
2021/09/25 13:45:26;;;;;;;0.70;0.70;;;;;;;23.22;50.34;100109.63;10375896;28;20057;-70
2021/09/25 13:50:28;;;;;;;1.10;0.82;;;;;;;23.19;48.79;100109.03;10376330;28;20487;-69
2021/09/25 13:55:29;;;;;;;1.85;0.90;;;;;;;23.14;48.64;100104.03;10375652;28;20041;-70
2021/09/25 14:00:31;;;;;;;0.65;0.63;;;;;;;23.37;47.99;100112.84;10357844;28;20049;-71
2021/09/25 14:05:32;;;;;;;1.25;0.80;;;;;;;23.21;49.11;100109.75;10375175;28;20057;-70
2021/09/25 14:10:34;;;;;;;0.70;0.60;;;;;;;23.06;50.15;100111.88;10379058;28;20041;-70
2021/09/25 14:15:37;;;;;;;0.80;0.80;;;;;;;22.98;50.41;100104.47;10390430;28;20099;-70
2021/09/25 14:20:41;;;;;;;1.27;0.70;;;;;;;23.26;49.29;100099.50;10415861;28;20388;-70
2021/09/25 14:25:44;;;;;;;1.38;0.70;;;;;;;22.89;50.17;100107.88;10387099;28;20109;-70
2021/09/25 14:30:46;;;;;;;1.08;0.80;;;;;;;22.98;50.90;100107.16;10375414;28;20046;-70
2021/09/25 14:35:47;;;;;;;0.60;0.60;;;;;;;23.25;48.54;100112.06;10374810;28;20104;-70
2021/09/25 14:40:50;;;;;;;0.70;0.60;;;;;;;23.38;47.85;100107.38;10398282;28;20052;-70
2021/09/25 14:45:51;;;;;;;1.25;0.60;;;;;;;23.30;49.05;100111.66;10375584;28;20096;-70
2021/09/25 14:50:53;;;;;;;0.70;0.70;;;;;;;23.19;48.55;100115.22;10373714;28;20133;-70
2021/09/25 14:55:56;;;;;;;0.77;0.70;;;;;;;23.15;49.04;100116.47;10374725;28;20411;-70
2021/09/25 15:00:59;;;;;;;0.70;0.70;;;;;;;22.64;50.52;100115.22;10373858;28;20125;-70
2021/09/25 15:06:01;;;;;;;0.80;0.80;;;;;;;22.51;50.71;100113.66;10373181;28;20080;-70
2021/09/25 15:11:02;;;;;;;0.80;0.57;;;;;;;22.47;51.09;100109.53;10339573;28;20038;-71
2021/09/25 15:16:04;;;;;;;1.63;0.75;;;;;;;22.43;52.02;100111.59;10356149;28;20526;-70
2021/09/25 15:21:05;;;;;;;2.47;1.10;;;;;;;22.20;53.12;100113.41;10374121;28;20503;-70
2021/09/25 15:26:07;;;;;;;1.55;1.05;;;;;;;22.20;53.53;100120.59;10373625;28;20547;-70
2021/09/25 15:31:10;;;;;;;1.35;1.25;;;;;;;21.95;54.75;100126.97;10355506;28;20100;-70
2021/09/25 15:36:11;;;;;;;2.08;1.17;;;;;;;21.89;55.57;100131.00;10373281;28;20045;-69
2021/09/25 15:41:13;;;;;;;1.20;1.10;;;;;;;21.94;55.30;100136.84;10373342;28;20042;-70
2021/09/25 15:46:14;;;;;;;1.50;1.30;;;;;;;21.53;56.29;100143.53;10373648;28;20077;-71
2021/09/25 15:51:16;;;;;;;1.52;1.35;;;;;;;21.47;56.82;100135.09;10372936;28;20500;-71
2021/09/25 15:56:18;;;;;;;1.30;1.20;;;;;;;21.59;56.47;100140.38;10372782;28;20049;-71
2021/09/25 16:01:20;;;;;;;2.80;1.30;;;;;;;21.48;57.17;100143.03;10374658;28;20050;-71
2021/09/25 16:06:21;;;;;;;2.90;2.00;;;;;;;21.49;57.54;100135.88;10379810;28;20130;-71
2021/09/25 16:11:24;;;;;;;1.92;1.73;;;;;;;21.40;58.02;100140.06;10402394;28;20053;-71
2021/09/25 16:16:25;;;;;;;1.95;1.85;;;;;;;21.38;58.63;100142.00;10420329;28;20049;-70
2021/09/25 16:21:29;;;;;;;3.28;1.70;;;;;;;21.47;59.19;100148.47;10420425;28;20072;-71
2021/09/25 16:26:30;;;;;;;1.77;1.67;;;;;;;21.20;61.38;100148.69;10420610;28;20479;-70
2021/09/25 16:31:32;;;;;;;1.80;1.70;;;;;;;21.16;59.48;100153.41;10420167;28;20388;-71
2021/09/25 16:36:33;;;;;;;1.60;1.50;;;;;;;20.88;60.56;100150.09;10418083;28;20075;-71
2021/09/25 16:41:35;;;;;;;1.55;1.45;;;;;;;20.79;61.04;100147.25;10401533;28;20477;-71
2021/09/25 16:46:37;;;;;;;2.67;2.30;;;;;;;20.85;61.11;100147.66;10386937;28;20099;-71
2021/09/25 16:51:39;;;;;;;2.17;1.98;;;;;;;20.71;62.62;100155.78;10419476;28;20045;-71
2021/09/25 16:56:41;;;;;;;3.38;2.67;;;;;;;20.47;64.15;100161.06;10380537;28;20058;-71
2021/09/25 17:01:42;;;;;;;2.13;1.92;;;;;;;20.26;64.67;100158.06;10377696;28;20107;-71
2021/09/25 17:06:44;;;;;;;3.13;2.22;;;;;;;20.12;65.95;100164.38;10374912;28;20056;-71
2021/09/25 17:11:46;;;;;;;4.00;3.63;;;;;;;19.95;67.60;100171.84;10380543;28;20038;-70
2021/09/25 17:16:47;;;;;;;3.63;3.28;;;;;;;19.72;68.11;100173.41;10400792;28;20568;-70
2021/09/25 17:21:49;;;;;;;3.45;3.15;;;;;;;19.60;68.81;100170.59;10401087;28;20053;-71
2021/09/25 17:26:51;;;;;;;3.13;2.88;;;;;;;19.26;69.02;100171.09;10418001;28;20395;-70
2021/09/25 17:31:52;;;;;;;3.70;2.90;;;;;;;19.25;70.53;100172.03;10416974;28;20041;-71
2021/09/25 17:36:55;;;;;;;3.90;3.30;;;;;;;19.26;69.57;100174.63;10419645;28;20088;-71
2021/09/25 17:41:57;;;;;;;3.92;3.60;;;;;;;18.97;70.62;100173.84;10417522;28;20696;-71
2021/09/25 17:46:58;;;;;;;5.05;4.55;;;;;;;18.61;71.60;100172.53;10418379;28;20411;-71
2021/09/25 17:52:00;;;;;;;5.55;4.85;;;;;;;18.69;72.23;100176.53;10418581;28;20046;-71
2021/09/25 17:57:05;;;;;;;6.18;5.68;;;;;;;18.55;72.39;100177.38;10417456;28;20041;-71
2021/09/25 18:02:08;;;;;;;7.10;6.45;;;;;;;18.25;73.57;100174.81;10398150;28;20119;-70
2021/09/25 18:07:11;;;;;;;6.85;6.25;;;;;;;18.15;74.33;100190.50;10416068;28;20490;-70
2021/09/25 18:12:13;;;;;;;7.55;6.85;;;;;;;17.87;74.95;100194.78;10416541;28;20050;-70
2021/09/25 18:17:22;;;;;;;7.30;6.68;;;;;;;17.61;75.61;100195.44;10411167;28;20052;-71
2021/09/25 18:22:24;;;;;;;8.65;7.95;;;;;;;17.61;76.78;100190.97;10416011;28;20095;-71
2021/09/25 18:27:29;;;;;;;9.80;9.02;;;;;;;17.74;76.44;100190.28;10414186;28;20061;-71
2021/09/25 18:32:30;;;;;;;8.10;7.50;;;;;;;17.71;76.33;100193.09;10414751;28;20056;-71
2021/09/25 18:37:35;;;;;;;9.73;9.00;;;;;;;17.43;77.19;100200.00;10411984;28;20037;-71
2021/09/25 18:42:37;;;;;;;10.52;9.63;;;;;;;17.25;77.99;100199.25;10415504;28;20045;-70
2021/09/25 18:47:40;;;;;;;10.15;9.25;;;;;;;17.05;79.45;100204.88;10415166;28;20053;-71
2021/09/25 18:52:41;;;;;;;9.60;8.77;;;;;;;16.81;79.52;100205.25;10396689;28;20049;-71
2021/09/25 18:57:43;;;;;;;10.68;9.70;;;;;;;16.75;80.23;100202.94;10414361;28;20092;-71
2021/09/25 19:02:44;;;;;;;9.90;9.10;;;;;;;16.59;80.80;100205.53;10416515;28;20072;-72
2021/09/25 19:07:46;;;;;;;11.10;10.20;;;;;;;16.47;81.18;100218.59;10416089;28;20042;-71
2021/09/25 19:12:49;;;;;;;13.05;12.05;;;;;;;16.30;82.31;100216.84;10415641;28;20091;-71
2021/09/25 19:17:51;;;;;;;10.50;9.80;;;;;;;16.48;82.10;100231.78;10415453;28;20038;-71
2021/09/25 19:22:52;;;;;;;9.95;9.20;;;;;;;16.57;81.67;100226.00;10417010;28;20410;-71
2021/09/25 19:27:54;;;;;;;9.95;9.13;;;;;;;16.62;81.97;100231.91;10372361;22;20097;-76
2021/09/25 19:32:56;;;;;;;10.57;9.63;;;;;;;16.29;82.87;100239.88;10315578;28;20086;-76
2021/09/25 19:38:00;;;;;;;10.85;9.88;;;;;;;16.05;83.92;100238.47;10333718;28;20504;-75
2021/09/25 19:43:03;;;;;;;12.70;11.80;;;;;;;15.89;85.03;100241.91;10301062;28;20054;-75
2021/09/25 19:48:05;;;;;;;13.15;12.15;;;;;;;15.95;84.65;100243.38;10299616;28;20051;-77
2021/09/25 19:53:07;;;;;;;12.93;11.95;;;;;;;16.01;84.37;100237.75;10301678;28;20046;-76
2021/09/25 19:58:21;;;;;;;13.13;12.23;;;;;;;16.25;83.50;100248.06;10299641;28;20095;-75
2021/09/25 20:03:23;;;;;;;13.35;12.00;;;;;;;16.32;82.66;100244.16;10300484;28;20051;-76
2021/09/25 20:08:27;;;;;;;11.10;10.30;;;;;;;16.15;83.14;100251.16;10300356;28;20118;-76
2021/09/25 20:13:28;;;;;;;10.75;9.82;;;;;;;15.85;84.66;100244.81;10299524;28;20452;-75
2021/09/25 20:18:32;;;;;;;11.15;10.35;;;;;;;15.89;84.63;100246.34;10300680;28;20471;-76
2021/09/25 20:23:33;;;;;;;11.70;10.65;;;;;;;15.88;84.66;100252.56;10298855;28;20058;-76
2021/09/25 20:28:36;;;;;;;10.55;9.85;;;;;;;15.75;84.93;100247.03;10282634;28;20050;-77
2021/09/25 20:33:40;;;;;;;11.10;10.40;;;;;;;15.48;86.10;100253.66;10282419;28;20058;-76
2021/09/25 20:38:41;;;;;;;10.52;9.52;;;;;;;15.42;86.07;100257.47;10299361;28;20053;-76
2021/09/25 20:43:43;;;;;;;11.10;10.30;;;;;;;15.43;85.90;100261.81;10299497;28;20057;-75
2021/09/25 20:48:44;;;;;;;12.07;11.10;;;;;;;15.41;86.04;100258.41;10296929;28;20057;-76
2021/09/25 20:53:47;;;;;;;11.65;10.82;;;;;;;15.35;86.37;100253.38;10298776;28;20050;-76
2021/09/25 20:58:49;;;;;;;12.38;11.32;;;;;;;15.58;85.59;100255.81;10297437;28;20412;-75
2021/09/25 21:03:51;;;;;;;12.15;11.23;;;;;;;15.70;85.10;100259.66;10298220;28;20059;-75
2021/09/25 21:09:12;;;;;;;11.55;10.75;;;;;;;15.57;85.65;100267.31;10297620;28;20050;-75
2021/09/25 21:14:14;;;;;;;10.98;10.18;;;;;;;15.42;86.71;100265.41;10295837;28;20059;-76
2021/09/25 21:19:16;;;;;;;11.45;9.82;;;;;;;15.47;85.88;100258.09;10296888;28;20042;-76
2021/09/25 21:24:17;;;;;;;11.38;10.48;;;;;;;15.30;87.10;100266.84;10279461;28;20051;-74
2021/09/25 21:29:19;;;;;;;11.07;10.18;;;;;;;15.32;86.91;100264.16;10295218;28;20098;-75
2021/09/25 21:34:21;;;;;;;11.07;10.27;;;;;;;15.17;86.92;100260.41;10296599;28;20095;-75
2021/09/25 21:39:24;;;;;;;10.52;9.82;;;;;;;14.89;88.16;100259.06;10295460;28;20061;-76
2021/09/25 21:44:26;;;;;;;10.70;10.00;;;;;;;14.75;88.76;100256.19;10296009;28;20102;-76
2021/09/25 21:49:28;;;;;;;11.52;10.68;;;;;;;14.84;88.44;100266.34;10295530;28;20046;-74
2021/09/25 21:54:33;;;;;;;12.15;11.30;;;;;;;14.93;88.16;100261.56;10295655;28;20050;-75
2021/09/25 21:59:34;;;;;;;11.68;10.88;;;;;;;14.93;88.74;100265.06;10295003;28;20042;-75
2021/09/25 22:04:36;;;;;;;11.45;10.70;;;;;;;15.04;88.94;100259.28;10296470;28;20397;-75
2021/09/25 22:09:37;;;;;;;11.95;11.15;;;;;;;14.86;89.72;100266.28;10295640;28;20047;-76
2021/09/25 22:14:40;;;;;;;11.18;10.45;;;;;;;14.83;89.88;100264.63;10293668;28;20053;-76
2021/09/25 22:19:41;;;;;;;11.05;10.23;;;;;;;14.78;89.45;100261.31;10294786;28;20162;-75
2021/09/25 22:24:43;;;;;;;10.52;9.82;;;;;;;14.75;89.59;100268.56;10295119;28;20046;-75
2021/09/25 22:29:45;;;;;;;10.07;9.27;;;;;;;14.90;89.05;100267.84;10294412;28;20102;-76
2021/09/25 22:34:49;;;;;;;9.75;9.10;;;;;;;14.98;88.14;100271.00;10295187;28;20047;-75
2021/09/25 22:39:52;;;;;;;10.15;9.43;;;;;;;14.80;88.07;100277.16;10295456;28;20106;-75
2021/09/25 22:44:54;;;;;;;11.18;10.27;;;;;;;14.67;88.65;100279.47;10295351;28;20049;-75
2021/09/25 22:49:56;;;;;;;11.93;10.80;;;;;;;14.83;88.22;100277.88;10294562;28;20051;-73
2021/09/25 22:54:58;;;;;;;11.52;10.60;;;;;;;14.43;88.83;100283.16;10294582;28;20050;-75
2021/09/25 22:59:59;;;;;;;10.25;9.45;;;;;;;14.31;88.95;100277.50;10295613;28;20043;-74
2021/09/25 23:05:02;;;;;;;9.90;9.20;;;;;;;14.29;89.69;100273.19;10295228;28;20436;-74
2021/09/25 23:10:07;;;;;;;9.07;8.40;;;;;;;14.42;88.80;100277.03;10297745;28;20054;-75